Time;durP1;ratioP1;P1;durP2;ratioP2;P2;SDS_P1;SDS_P2;PMS_P1;PMS_P2;Temp;Humidity;BMP_temperature;BMP_pressure;BME280_temperature;BME280_humidity;BME280_pressure;Samples;Min_cycle;Max_cycle;Signal;HPM_P1;HPM_P2
2023/07/27 00:00:55;;;;;;;8.10;5.25;;;15.00;99.90;;;;;;5103401;28;20043;-58
2023/07/27 00:03:21;;;;;;;9.30;5.50;;;15.00;99.90;;;;;;5101134;28;20044;-56
2023/07/27 00:05:46;;;;;;;7.25;5.22;;;15.00;99.90;;;;;;5102667;28;20622;-58
2023/07/27 00:08:12;;;;;;;9.07;5.40;;;15.00;99.90;;;;;;5103585;28;20040;-58
2023/07/27 00:10:38;;;;;;;8.02;5.20;;;15.00;99.90;;;;;;5100516;28;20094;-56
2023/07/27 00:13:03;;;;;;;11.43;5.60;;;15.10;99.90;;;;;;5103632;28;20083;-59
2023/07/27 00:15:29;;;;;;;7.50;5.60;;;14.90;99.90;;;;;;5101273;28;20044;-59
2023/07/27 00:17:55;;;;;;;9.85;5.63;;;14.80;99.90;;;;;;5104048;28;20036;-58
2023/07/27 00:20:20;;;;;;;8.18;5.70;;;14.90;99.90;;;;;;5101972;28;20047;-58
2023/07/27 00:22:46;;;;;;;7.72;5.28;;;14.80;99.90;;;;;;5101043;28;20822;-58
2023/07/27 00:25:12;;;;;;;9.20;5.60;;;14.90;99.90;;;;;;5103146;28;20074;-58
2023/07/27 00:27:38;;;;;;;7.55;5.50;;;14.80;99.90;;;;;;5101110;28;20093;-58
2023/07/27 00:30:04;;;;;;;9.57;5.47;;;14.80;99.90;;;;;;5103251;28;20044;-58
2023/07/27 00:32:29;;;;;;;7.78;6.10;;;14.90;99.90;;;;;;5099813;28;20055;-58
2023/07/27 00:34:55;;;;;;;9.00;5.60;;;14.80;99.90;;;;;;5101983;28;20040;-58
2023/07/27 00:37:21;;;;;;;9.25;5.80;;;14.90;99.90;;;;;;5101406;28;20055;-58
2023/07/27 00:39:47;;;;;;;8.55;5.75;;;14.90;99.90;;;;;;5102715;28;20040;-58
2023/07/27 00:42:12;;;;;;;9.00;5.95;;;14.90;99.90;;;;;;5102293;28;20040;-57
2023/07/27 00:44:38;;;;;;;8.60;6.00;;;14.90;99.90;;;;;;5099717;28;20546;-58
2023/07/27 00:47:04;;;;;;;8.15;5.68;;;14.90;99.90;;;;;;5102855;28;20032;-58
2023/07/27 00:49:30;;;;;;;9.32;6.00;;;14.90;99.90;;;;;;5101036;28;20044;-58
2023/07/27 00:51:57;;;;;;;9.18;5.78;;;14.90;99.90;;;;;;5103086;28;20420;-59
2023/07/27 00:54:23;;;;;;;7.90;5.80;;;14.90;99.90;;;;;;5100869;28;20050;-58
2023/07/27 00:56:49;;;;;;;9.00;6.13;;;14.90;99.90;;;;;;5102522;28;20073;-58
2023/07/27 00:59:14;;;;;;;7.45;5.57;;;14.90;99.90;;;;;;5101991;28;20127;-58
2023/07/27 01:01:40;;;;;;;9.40;5.78;;;14.90;99.90;;;;;;5101002;28;20056;-58
2023/07/27 01:04:06;;;;;;;10.13;5.60;;;14.90;99.90;;;;;;5102311;28;20044;-58
2023/07/27 01:06:31;;;;;;;11.23;5.78;;;14.90;99.90;;;;;;5100530;28;20036;-58
2023/07/27 01:08:57;;;;;;;10.85;6.18;;;14.90;99.90;;;;;;5101272;28;20044;-58
2023/07/27 01:11:37;;;;;;;8.05;5.95;;;14.90;99.90;;;;;;5099031;28;20411;-57
2023/07/27 01:14:21;;;;;;;8.35;5.57;;;14.90;99.90;;;;;;5101798;28;20048;-58
2023/07/27 01:16:57;;;;;;;10.23;6.22;;;14.80;99.90;;;;;;5102131;28;20039;-57
2023/07/27 01:19:26;;;;;;;;;;;14.90;99.90;;;;;;5100664;28;20040;-58
2023/07/27 01:22:11;;;;;;;9.15;5.80;;;14.90;99.90;;;;;;5102347;28;19949;-58
2023/07/27 01:25:21;;;;;;;9.25;6.13;;;14.80;99.90;;;;;;5100685;28;20048;-58
2023/07/27 01:28:08;;;;;;;8.93;6.45;;;14.80;99.90;;;;;;5076146;28;20124;-58
2023/07/27 01:30:49;;;;;;;10.82;6.05;;;14.80;99.90;;;;;;5102451;28;20056;-58
2023/07/27 01:33:21;;;;;;;10.45;6.03;;;14.80;99.90;;;;;;5100784;28;20052;-58
2023/07/27 01:36:09;;;;;;;10.15;6.32;;;14.80;99.90;;;;;;5100693;28;20127;-58
2023/07/27 01:38:39;;;;;;;8.35;6.05;;;14.80;99.90;;;;;;5101726;28;20075;-57
2023/07/27 01:41:07;;;;;;;10.00;6.38;;;14.80;99.90;;;;;;5099410;28;20407;-58
2023/07/27 01:43:34;;;;;;;9.07;6.03;;;14.80;99.90;;;;;;5102198;28;20055;-58
2023/07/27 01:46:01;;;;;;;8.60;6.22;;;14.80;99.90;;;;;;5098778;28;20055;-57
2023/07/27 01:48:28;;;;;;;11.48;6.55;;;14.80;99.90;;;;;;5101234;28;20036;-58
2023/07/27 01:50:55;;;;;;;9.52;6.30;;;14.80;99.90;;;;;;5101205;28;20047;-58
2023/07/27 01:53:22;;;;;;;12.50;6.85;;;14.80;99.90;;;;;;5099610;28;20096;-58
2023/07/27 01:55:49;;;;;;;8.70;5.95;;;14.80;99.90;;;;;;5101611;28;20044;-59
2023/07/27 01:58:16;;;;;;;9.70;6.05;;;14.80;99.90;;;;;;5099499;28;20047;-59
2023/07/27 02:00:42;;;;;;;11.93;6.55;;;14.70;99.90;;;;;;5101744;28;20035;-58
2023/07/27 02:03:10;;;;;;;10.55;6.60;;;14.70;99.90;;;;;;5099739;28;20048;-58
2023/07/27 02:05:36;;;;;;;13.20;7.57;;;14.70;99.90;;;;;;5100599;28;20762;-58
2023/07/27 02:08:01;;;;;;;14.75;7.10;;;14.70;99.90;;;;;;5099769;28;20058;-58
2023/07/27 02:10:29;;;;;;;11.23;7.00;;;14.70;99.90;;;;;;5099348;28;20051;-58
2023/07/27 02:13:07;;;;;;;10.23;7.05;;;14.70;99.90;;;;;;5082817;28;20056;-58
2023/07/27 02:15:39;;;;;;;11.50;7.00;;;14.70;99.90;;;;;;5098962;28;20044;-59
2023/07/27 02:18:14;;;;;;;10.50;7.07;;;14.70;99.90;;;;;;5101223;28;20036;-58
2023/07/27 02:20:41;;;;;;;10.43;6.90;;;14.70;99.90;;;;;;5100514;28;20044;-57
2023/07/27 02:23:10;;;;;;;8.63;7.00;;;14.70;99.90;;;;;;5099167;28;20121;-58
2023/07/27 02:25:36;;;;;;;8.95;6.95;;;14.70;99.90;;;;;;5100891;28;20070;-58
2023/07/27 02:28:02;;;;;;;13.02;7.20;;;14.60;99.90;;;;;;5097437;28;20044;-58
2023/07/27 02:30:27;;;;;;;12.25;7.47;;;14.70;99.90;;;;;;5099750;28;20115;-58
2023/07/27 02:32:53;;;;;;;8.57;6.65;;;14.70;99.90;;;;;;5097622;28;20545;-58
2023/07/27 02:35:20;;;;;;;11.23;7.65;;;14.60;99.90;;;;;;5100569;28;20043;-58
2023/07/27 02:37:45;;;;;;;11.88;7.15;;;14.60;99.90;;;;;;5100101;28;20492;-58
2023/07/27 02:40:11;;;;;;;10.13;7.18;;;14.60;99.90;;;;;;5099096;28;20040;-58
2023/07/27 02:42:37;;;;;;;9.27;6.95;;;14.60;99.90;;;;;;5100212;28;20043;-58
2023/07/27 02:45:03;;;;;;;9.38;7.25;;;14.60;99.90;;;;;;5097212;28;20044;-58
2023/07/27 02:47:28;;;;;;;9.25;6.50;;;14.60;99.90;;;;;;5100836;28;20055;-58
2023/07/27 02:49:54;;;;;;;9.65;7.22;;;14.60;99.90;;;;;;5098399;28;20433;-58
2023/07/27 02:52:20;;;;;;;10.85;7.72;;;14.60;99.90;;;;;;5099379;28;20077;-58
2023/07/27 02:54:45;;;;;;;13.30;6.78;;;14.60;99.90;;;;;;5098302;28;20062;-58
2023/07/27 02:57:11;;;;;;;9.55;6.35;;;14.60;99.90;;;;;;5099174;28;20047;-59
2023/07/27 02:59:37;;;;;;;10.35;7.43;;;14.60;99.90;;;;;;5100141;28;20040;-58
2023/07/27 03:02:02;;;;;;;12.65;6.82;;;14.60;99.90;;;;;;5098385;28;20071;-58
2023/07/27 03:04:28;;;;;;;12.65;7.55;;;14.50;99.90;;;;;;5100369;28;20044;-57
2023/07/27 03:06:54;;;;;;;10.50;6.95;;;14.50;99.90;;;;;;5097893;28;20036;-59
2023/07/27 03:09:19;;;;;;;11.32;6.95;;;14.50;99.90;;;;;;5100562;28;20107;-58
2023/07/27 03:11:45;;;;;;;10.32;6.95;;;14.50;99.90;;;;;;5098541;28;20048;-57
2023/07/27 03:14:11;;;;;;;11.93;7.28;;;14.50;99.90;;;;;;5099108;28;20032;-58
2023/07/27 03:16:36;;;;;;;10.60;7.82;;;14.50;99.90;;;;;;5100004;28;20125;-58
2023/07/27 03:19:02;;;;;;;9.70;7.50;;;14.50;99.90;;;;;;5098348;28;20087;-58
2023/07/27 03:21:28;;;;;;;10.85;7.78;;;14.50;99.90;;;;;;5100182;28;20040;-59
2023/07/27 03:23:53;;;;;;;11.68;7.90;;;14.50;99.90;;;;;;5096392;28;20491;-57
2023/07/27 03:26:19;;;;;;;9.50;7.22;;;14.40;99.90;;;;;;5100607;28;20044;-58
2023/07/27 03:28:45;;;;;;;13.00;8.23;;;14.40;99.90;;;;;;5097149;28;20054;-58
2023/07/27 03:31:18;;;;;;;12.15;8.05;;;14.40;99.90;;;;;;5099460;28;20062;-58
2023/07/27 03:33:44;;;;;;;11.50;7.78;;;14.30;99.90;;;;;;5100625;28;20076;-59
2023/07/27 03:36:09;;;;;;;10.07;7.53;;;14.30;99.90;;;;;;5104377;28;20056;-58
2023/07/27 03:38:35;;;;;;;14.65;7.47;;;14.30;99.90;;;;;;5105426;28;20048;-58
2023/07/27 03:41:01;;;;;;;9.90;7.07;;;14.30;99.90;;;;;;5104506;28;20047;-58
2023/07/27 03:43:27;;;;;;;11.23;7.30;;;14.30;99.90;;;;;;5106871;28;20050;-58
2023/07/27 03:45:53;;;;;;;10.77;7.40;;;14.30;99.90;;;;;;5103763;28;20118;-57
2023/07/27 03:48:19;;;;;;;9.73;6.90;;;14.30;99.90;;;;;;5106296;28;20043;-58
2023/07/27 03:50:44;;;;;;;10.93;7.18;;;14.30;99.90;;;;;;5106337;28;20032;-57
2023/07/27 03:53:10;;;;;;;10.77;6.78;;;14.30;99.90;;;;;;5104661;28;20127;-58
2023/07/27 03:55:36;;;;;;;11.45;7.30;;;14.30;99.90;;;;;;5106710;28;20051;-58
2023/07/27 03:58:02;;;;;;;10.82;7.07;;;14.30;99.90;;;;;;5104596;28;20040;-58
2023/07/27 04:00:27;;;;;;;10.32;6.43;;;14.30;99.90;;;;;;5105564;28;20033;-57
2023/07/27 04:02:53;;;;;;;12.90;7.30;;;14.30;99.90;;;;;;5104473;28;20060;-57
2023/07/27 04:05:19;;;;;;;12.15;7.10;;;14.30;99.90;;;;;;5106159;28;20032;-58
2023/07/27 04:07:44;;;;;;;9.68;6.93;;;14.30;99.90;;;;;;5105970;28;20047;-58
2023/07/27 04:10:10;;;;;;;9.25;6.38;;;14.20;99.90;;;;;;5104720;28;20048;-58
2023/07/27 04:12:36;;;;;;;11.10;6.22;;;14.20;99.90;;;;;;5104582;28;20036;-58
2023/07/27 04:15:02;;;;;;;12.55;7.30;;;14.20;99.90;;;;;;5102983;28;20052;-58
2023/07/27 04:17:28;;;;;;;12.52;6.75;;;14.20;99.90;;;;;;5105358;28;20046;-58
2023/07/27 04:19:53;;;;;;;11.40;7.15;;;14.20;99.90;;;;;;5103012;28;20079;-58
2023/07/27 04:22:19;;;;;;;10.52;6.35;;;14.10;99.90;;;;;;5106521;28;20423;-58
2023/07/27 04:24:45;;;;;;;9.20;6.82;;;14.20;99.90;;;;;;5105367;28;20075;-57
2023/07/27 04:27:11;;;;;;;12.80;7.43;;;14.20;99.90;;;;;;5104858;28;20051;-58
2023/07/27 04:29:37;;;;;;;9.48;7.32;;;14.20;99.90;;;;;;5104680;28;20043;-57
2023/07/27 04:32:03;;;;;;;11.80;7.22;;;14.10;99.90;;;;;;5104224;28;20048;-58
2023/07/27 04:34:29;;;;;;;10.98;7.43;;;14.20;99.90;;;;;;5106411;28;20040;-58
2023/07/27 04:36:54;;;;;;;11.82;7.47;;;14.10;99.90;;;;;;5103881;28;20121;-58
2023/07/27 04:39:20;;;;;;;11.98;7.63;;;14.20;99.90;;;;;;5106461;28;20040;-58
2023/07/27 04:41:46;;;;;;;12.43;8.15;;;14.20;99.90;;;;;;5104467;28;20477;-57
2023/07/27 04:44:11;;;;;;;11.10;7.28;;;14.20;99.90;;;;;;5104922;28;20054;-58
2023/07/27 04:46:38;;;;;;;10.02;7.53;;;14.20;99.90;;;;;;5103642;28;20123;-58
2023/07/27 04:49:06;;;;;;;11.65;7.72;;;14.20;99.90;;;;;;5101031;28;20046;-58
2023/07/27 04:51:33;;;;;;;8.65;6.30;;;14.20;99.90;;;;;;5102964;28;20181;-58
2023/07/27 04:53:58;;;;;;;14.10;7.78;;;14.20;99.90;;;;;;5100688;28;20055;-57
2023/07/27 04:56:24;;;;;;;10.20;6.70;;;14.20;99.90;;;;;;5103098;28;20044;-59
2023/07/27 04:58:50;;;;;;;8.65;6.45;;;14.20;99.90;;;;;;5101497;28;20069;-57
2023/07/27 05:01:15;;;;;;;9.23;6.78;;;14.30;99.90;;;;;;5101840;28;20070;-56
2023/07/27 05:03:41;;;;;;;11.38;7.32;;;14.30;99.90;;;;;;5102185;28;20111;-58
2023/07/27 05:06:07;;;;;;;9.82;7.22;;;14.30;99.90;;;;;;5100666;28;20036;-58
2023/07/27 05:08:32;;;;;;;10.80;7.25;;;14.30;99.90;;;;;;5102543;28;20094;-58
2023/07/27 05:10:58;;;;;;;10.60;6.68;;;14.30;99.90;;;;;;5100563;28;20043;-58
2023/07/27 05:13:24;;;;;;;11.65;7.88;;;14.30;99.90;;;;;;5101377;28;20043;-58
2023/07/27 05:15:49;;;;;;;13.07;7.20;;;14.30;99.90;;;;;;5100745;28;20044;-58
2023/07/27 05:18:15;;;;;;;11.98;7.53;;;14.30;99.90;;;;;;5101792;28;20089;-58
2023/07/27 05:20:42;;;;;;;15.18;8.77;;;14.30;99.90;;;;;;5101954;28;20051;-58
2023/07/27 05:23:07;;;;;;;12.30;7.80;;;14.30;99.90;;;;;;5100229;28;20047;-58
2023/07/27 05:25:33;;;;;;;12.15;8.30;;;14.30;99.90;;;;;;5101962;28;20040;-58
2023/07/27 05:27:59;;;;;;;13.38;8.35;;;14.40;99.90;;;;;;5100030;28;20040;-58
2023/07/27 05:30:24;;;;;;;10.95;7.90;;;14.40;99.90;;;;;;5102433;28;20064;-58
2023/07/27 05:32:50;;;;;;;11.90;8.13;;;14.40;99.90;;;;;;5100108;28;20061;-57
2023/07/27 05:35:16;;;;;;;12.80;8.23;;;14.40;99.90;;;;;;5101531;28;20044;-58
2023/07/27 05:37:46;;;;;;;12.45;8.48;;;14.40;99.90;;;;;;5101371;28;20046;-57
2023/07/27 05:40:14;;;;;;;12.65;9.30;;;14.40;99.90;;;;;;5098703;28;20044;-58
2023/07/27 05:42:40;;;;;;;11.50;8.32;;;14.40;99.90;;;;;;5100317;28;20119;-57
2023/07/27 05:45:06;;;;;;;16.08;8.60;;;14.40;99.90;;;;;;5099786;28;20052;-57
2023/07/27 05:47:32;;;;;;;12.48;9.68;;;14.40;99.90;;;;;;5102083;28;20063;-57
2023/07/27 05:49:58;;;;;;;12.80;9.00;;;14.40;99.90;;;;;;5099866;28;20044;-58
2023/07/27 05:52:24;;;;;;;13.23;10.00;;;14.40;99.90;;;;;;5101414;28;20047;-57
2023/07/27 05:54:50;;;;;;;15.38;10.30;;;14.40;99.90;;;;;;5101064;28;20051;-57
2023/07/27 05:57:16;;;;;;;15.25;10.25;;;14.50;99.90;;;;;;5098102;28;20043;-58
2023/07/27 05:59:42;;;;;;;12.48;8.38;;;14.40;99.90;;;;;;5101276;28;20075;-57
2023/07/27 06:02:07;;;;;;;17.13;11.57;;;14.40;99.90;;;;;;5099316;28;20071;-58
2023/07/27 06:04:33;;;;;;;18.27;9.23;;;14.50;99.90;;;;;;5101623;28;20036;-58
2023/07/27 06:06:59;;;;;;;17.35;10.32;;;14.50;99.90;;;;;;5099281;28;20470;-58
2023/07/27 06:09:25;;;;;;;15.93;10.25;;;14.50;99.90;;;;;;5101476;28;20032;-58
2023/07/27 06:11:51;;;;;;;14.48;10.32;;;14.60;99.90;;;;;;5100082;28;20042;-58
2023/07/27 06:14:17;;;;;;;15.20;9.10;;;14.50;99.90;;;;;;5100027;28;20040;-58
2023/07/27 06:16:43;;;;;;;18.27;11.82;;;14.60;99.90;;;;;;5100915;28;20040;-58
2023/07/27 06:19:09;;;;;;;16.63;9.63;;;14.60;99.90;;;;;;5099326;28;20051;-58
2023/07/27 06:21:35;;;;;;;16.98;11.00;;;14.60;99.90;;;;;;5101097;28;20393;-58
2023/07/27 06:24:00;;;;;;;16.13;10.57;;;14.60;99.90;;;;;;5098779;28;20051;-58
2023/07/27 06:26:27;;;;;;;18.90;11.73;;;14.60;99.90;;;;;;5101310;28;20044;-57
2023/07/27 06:28:53;;;;;;;15.85;9.68;;;14.60;99.90;;;;;;5099879;28;20058;-57
2023/07/27 06:31:18;;;;;;;13.48;8.55;;;14.60;99.90;;;;;;5099947;28;20040;-58
2023/07/27 06:33:44;;;;;;;16.38;10.25;;;14.60;99.90;;;;;;5100629;28;20048;-58
2023/07/27 06:36:14;;;;;;;13.23;9.77;;;14.60;99.90;;;;;;5098526;28;20094;-58
2023/07/27 06:38:40;;;;;;;17.02;11.00;;;14.70;99.90;;;;;;5100747;28;20047;-57
2023/07/27 06:41:06;;;;;;;11.52;8.70;;;14.70;99.90;;;;;;5098284;28;20044;-59
2023/07/27 06:43:32;;;;;;;16.67;10.30;;;14.70;99.90;;;;;;5100961;28;20044;-58
2023/07/27 06:45:58;;;;;;;17.05;10.95;;;14.70;99.90;;;;;;5098160;28;20074;-58
2023/07/27 06:48:23;;;;;;;16.40;10.77;;;14.70;99.90;;;;;;5099667;28;20032;-58
2023/07/27 06:50:49;;;;;;;14.35;10.57;;;14.70;99.90;;;;;;5100469;28;20100;-59
2023/07/27 06:53:15;;;;;;;14.27;9.63;;;14.70;99.90;;;;;;5098572;28;20048;-60
2023/07/27 06:55:41;;;;;;;14.70;9.90;;;14.70;99.90;;;;;;5100568;28;20043;-63
2023/07/27 06:58:07;;;;;;;14.68;9.93;;;14.80;99.90;;;;;;5097081;28;20055;-65
2023/07/27 07:00:32;;;;;;;17.52;9.30;;;14.80;99.90;;;;;;5100749;28;20040;-61
2023/07/27 07:02:58;;;;;;;11.73;8.25;;;14.80;99.90;;;;;;5098873;28;20127;-60
2023/07/27 07:05:24;;;;;;;11.13;8.57;;;14.80;99.90;;;;;;5099640;28;20071;-60
2023/07/27 07:07:50;;;;;;;12.93;9.48;;;14.80;99.90;;;;;;5100077;28;20166;-59
2023/07/27 07:10:18;;;;;;;10.00;8.02;;;14.80;99.90;;;;;;5097611;28;20040;-60
2023/07/27 07:12:44;;;;;;;15.63;8.93;;;14.80;99.90;;;;;;5100055;28;20044;-60
2023/07/27 07:15:10;;;;;;;13.25;8.70;;;14.80;99.90;;;;;;5098077;28;20044;-60
2023/07/27 07:17:36;;;;;;;12.35;9.00;;;14.80;99.90;;;;;;5100451;28;20043;-60
2023/07/27 07:20:06;;;;;;;11.80;9.00;;;14.80;99.90;;;;;;5098447;28;20040;-59
2023/07/27 07:22:33;;;;;;;11.73;8.32;;;14.80;99.90;;;;;;5099548;28;20423;-60
2023/07/27 07:24:58;;;;;;;9.63;7.55;;;14.90;99.90;;;;;;5098485;28;20036;-59
2023/07/27 07:27:24;;;;;;;10.32;8.05;;;14.90;99.90;;;;;;5098241;28;20552;-59
2023/07/27 07:29:50;;;;;;;12.30;8.43;;;14.90;99.90;;;;;;5099972;28;20047;-59
2023/07/27 07:32:15;;;;;;;7.43;6.40;;;14.90;99.90;;;;;;5097726;28;20120;-60
2023/07/27 07:34:41;;;;;;;8.35;6.90;;;14.90;99.90;;;;;;5098789;28;20629;-59
2023/07/27 07:37:06;;;;;;;10.98;7.55;;;14.90;99.90;;;;;;5096711;28;20067;-59
2023/07/27 07:39:32;;;;;;;8.65;6.45;;;15.00;99.90;;;;;;5098269;28;20076;-59
2023/07/27 07:42:00;;;;;;;8.10;5.72;;;15.00;99.90;;;;;;5099262;28;20044;-59
2023/07/27 07:44:25;;;;;;;7.80;5.28;;;15.00;99.90;;;;;;5098102;28;20094;-59
2023/07/27 07:46:51;;;;;;;6.22;5.55;;;15.00;99.90;;;;;;5099751;28;20052;-58
2023/07/27 07:49:17;;;;;;;7.80;6.20;;;15.00;99.90;;;;;;5096286;28;20052;-58
2023/07/27 07:51:42;;;;;;;8.45;5.70;;;15.00;99.90;;;;;;5100013;28;20051;-58
2023/07/27 07:54:09;;;;;;;6.03;4.60;;;15.00;99.90;;;;;;5097791;28;20044;-58
2023/07/27 07:56:35;;;;;;;6.32;4.60;;;15.00;99.90;;;;;;5099682;28;20554;-59
2023/07/27 07:59:02;;;;;;;7.18;4.70;;;15.00;99.90;;;;;;5098972;28;20101;-59
2023/07/27 08:01:28;;;;;;;6.80;4.70;;;15.00;99.90;;;;;;5098261;28;20557;-60
2023/07/27 08:03:53;;;;;;;7.95;4.78;;;15.00;99.90;;;;;;5099451;28;20040;-60
2023/07/27 08:06:19;;;;;;;6.05;4.18;;;15.00;99.90;;;;;;5097681;28;20036;-61
2023/07/27 08:08:46;;;;;;;7.22;4.97;;;15.10;99.90;;;;;;5099945;28;20070;-59
2023/07/27 08:11:11;;;;;;;6.13;3.97;;;15.10;99.90;;;;;;5095864;28;20040;-59
2023/07/27 08:13:37;;;;;;;10.00;4.22;;;15.10;99.90;;;;;;5099916;28;20050;-58
2023/07/27 08:16:03;;;;;;;4.88;3.88;;;15.20;99.90;;;;;;5098569;28;20104;-57
2023/07/27 08:18:31;;;;;;;5.72;3.72;;;15.20;99.90;;;;;;5098422;28;20044;-58
2023/07/27 08:20:59;;;;;;;4.22;3.45;;;15.20;99.90;;;;;;5100997;28;20040;-59
2023/07/27 08:23:25;;;;;;;5.55;3.95;;;15.30;99.90;;;;;;5101410;28;20488;-59
2023/07/27 08:25:53;;;;;;;5.85;3.92;;;15.30;99.90;;;;;;5103502;28;20032;-58
2023/07/27 08:28:20;;;;;;;4.00;3.22;;;15.30;99.90;;;;;;5100085;28;20237;-58
2023/07/27 08:30:46;;;;;;;3.83;2.72;;;15.40;99.90;;;;;;5103373;28;20044;-59
2023/07/27 08:33:12;;;;;;;4.00;2.97;;;15.40;99.90;;;;;;5102302;28;20047;-57
2023/07/27 08:35:39;;;;;;;6.32;3.35;;;15.40;99.90;;;;;;5101797;28;20060;-59
2023/07/27 08:38:05;;;;;;;3.50;2.65;;;15.40;99.90;;;;;;5102949;28;20040;-58
2023/07/27 08:40:31;;;;;;;3.40;2.90;;;15.50;99.90;;;;;;5101094;28;20040;-59
2023/07/27 08:42:56;;;;;;;4.38;3.00;;;15.50;99.90;;;;;;5102923;28;20043;-59
2023/07/27 08:45:22;;;;;;;3.72;2.90;;;15.60;99.90;;;;;;5100614;28;20036;-59
2023/07/27 08:47:53;;;;;;;4.80;3.00;;;15.30;99.90;;;;;;5103168;28;20044;-59
2023/07/27 08:50:19;;;;;;;4.35;3.42;;;15.70;99.90;;;;;;5102012;28;20071;-59
2023/07/27 08:52:46;;;;;;;3.10;2.70;;;15.70;99.90;;;;;;5101948;28;20040;-60
2023/07/27 08:55:12;;;;;;;3.95;3.10;;;15.80;99.90;;;;;;5102679;28;20044;-59
2023/07/27 08:57:38;;;;;;;4.10;3.00;;;15.80;99.90;;;;;;5100737;28;20507;-59
2023/07/27 09:00:04;;;;;;;3.58;2.85;;;15.90;99.90;;;;;;5102933;28;20032;-59
2023/07/27 09:02:30;;;;;;;3.28;2.78;;;16.00;99.90;;;;;;5100445;28;20073;-59
2023/07/27 09:04:56;;;;;;;3.35;2.80;;;16.20;99.90;;;;;;5102929;28;20290;-59
2023/07/27 09:07:22;;;;;;;3.67;2.65;;;16.30;99.90;;;;;;5101647;28;20032;-59
2023/07/27 09:09:52;;;;;;;3.45;2.70;;;16.30;99.90;;;;;;5101576;28;20046;-59
2023/07/27 09:12:19;;;;;;;4.50;2.70;;;16.40;99.90;;;;;;5102152;28;20174;-59
2023/07/27 09:14:45;;;;;;;3.30;3.00;;;16.40;99.90;;;;;;5100585;28;20079;-59
2023/07/27 09:17:13;;;;;;;4.47;3.00;;;16.40;99.90;;;;;;5102541;28;20036;-59
2023/07/27 09:19:41;;;;;;;2.80;2.60;;;16.40;99.90;;;;;;5100426;28;20122;-59
2023/07/27 09:22:07;;;;;;;3.38;3.08;;;16.50;99.90;;;;;;5102533;28;20078;-59
2023/07/27 09:24:34;;;;;;;2.83;2.50;;;16.50;99.90;;;;;;5101157;28;20076;-59
2023/07/27 09:27:02;;;;;;;3.22;2.80;;;16.50;99.90;;;;;;5099671;28;20052;-59
2023/07/27 09:29:28;;;;;;;4.45;2.80;;;16.60;99.90;;;;;;5101986;28;20046;-59
2023/07/27 09:31:58;;;;;;;4.00;3.33;;;16.60;99.90;;;;;;5099328;28;20068;-59
2023/07/27 09:34:29;;;;;;;3.63;2.85;;;16.60;99.90;;;;;;5102085;28;20079;-59
2023/07/27 09:37:08;;;;;;;4.03;3.50;;;16.60;99.90;;;;;;5099843;28;20048;-59
2023/07/27 09:39:42;;;;;;;4.20;3.60;;;16.70;99.90;;;;;;5100200;28;20110;-59
2023/07/27 09:42:10;;;;;;;3.58;3.13;;;16.70;99.90;;;;;;5101521;28;20040;-59
2023/07/27 09:44:49;;;;;;;4.40;3.20;;;16.80;99.90;;;;;;5099925;28;20051;-59
2023/07/27 09:47:23;;;;;;;4.22;3.83;;;16.80;99.90;;;;;;5102032;28;20040;-60
2023/07/27 09:49:52;;;;;;;4.28;3.80;;;16.90;99.90;;;;;;5099787;28;20036;-58
2023/07/27 09:52:19;;;;;;;3.95;3.58;;;17.00;99.90;;;;;;5101473;28;20048;-60
2023/07/27 09:54:48;;;;;;;5.25;3.70;;;17.00;99.90;;;;;;5101119;28;20059;-59
2023/07/27 09:57:14;;;;;;;4.22;3.83;;;17.10;99.90;;;;;;5099855;28;20089;-58
2023/07/27 09:59:42;;;;;;;4.57;4.10;;;17.10;99.90;;;;;;5101424;28;20044;-60
2023/07/27 10:02:08;;;;;;;5.22;4.10;;;17.10;99.90;;;;;;5099334;28;20051;-59
2023/07/27 10:04:34;;;;;;;4.28;3.80;;;17.20;99.90;;;;;;5101509;28;20050;-59
2023/07/27 10:07:00;;;;;;;4.93;4.05;;;17.30;99.90;;;;;;5098300;28;20063;-60
2023/07/27 10:09:26;;;;;;;4.97;4.30;;;17.30;99.90;;;;;;5101115;28;20040;-60
2023/07/27 10:11:57;;;;;;;4.07;3.58;;;17.30;99.90;;;;;;5100659;28;20499;-59
2023/07/27 10:14:26;;;;;;;4.57;4.15;;;17.30;99.90;;;;;;5099788;28;20054;-60
2023/07/27 10:17:03;;;;;;;4.82;4.40;;;17.40;99.90;;;;;;5101310;28;20096;-59
2023/07/27 10:19:50;;;;;;;5.22;4.38;;;17.40;99.90;;;;;;5098907;28;20075;-60
2023/07/27 10:22:18;;;;;;;4.78;4.38;;;17.40;99.90;;;;;;5101013;28;20054;-59
2023/07/27 10:24:52;;;;;;;5.53;4.78;;;17.40;99.90;;;;;;5100702;28;20044;-60
2023/07/27 10:27:19;;;;;;;5.53;4.50;;;17.40;99.90;;;;;;5099190;28;20071;-59
2023/07/27 10:30:09;;;;;;;4.10;3.70;;;17.40;99.90;;;;;;5099487;28;20036;-60
2023/07/27 10:32:38;;;;;;;4.85;4.35;;;17.70;99.90;;;;;;5099009;28;20059;-59
2023/07/27 10:35:08;;;;;;;4.20;3.85;;;17.40;99.90;;;;;;5100935;28;20044;-60
2023/07/27 10:37:53;;;;;;;4.22;3.85;;;17.40;99.90;;;;;;5100241;28;20051;-59
2023/07/27 10:40:24;;;;;;;4.90;4.20;;;17.50;99.90;;;;;;5098739;28;20042;-60
2023/07/27 10:42:59;;;;;;;6.13;4.47;;;17.40;99.90;;;;;;5100569;28;20051;-59
2023/07/27 10:45:26;;;;;;;4.82;4.40;;;17.50;99.90;;;;;;5098624;28;20036;-59
2023/07/27 10:47:56;;;;;;;5.97;4.32;;;17.50;99.90;;;;;;5100701;28;20071;-59
2023/07/27 10:50:22;;;;;;;5.18;4.70;;;17.60;99.90;;;;;;5099778;28;20043;-59
2023/07/27 10:52:52;;;;;;;5.32;4.82;;;17.70;99.90;;;;;;5099285;28;20044;-59
2023/07/27 10:55:19;;;;;;;5.50;5.00;;;17.70;99.90;;;;;;5100539;28;20044;-59
2023/07/27 10:57:46;;;;;;;4.97;4.57;;;17.70;99.90;;;;;;5098597;28;20115;-59
2023/07/27 11:00:13;;;;;;;5.25;4.80;;;17.70;99.90;;;;;;5100769;28;20036;-59
2023/07/27 11:02:42;;;;;;;5.50;5.00;;;17.80;99.90;;;;;;5098442;28;20624;-59
2023/07/27 11:05:09;;;;;;;4.65;3.97;;;17.80;99.90;;;;;;5100282;28;20047;-59
2023/07/27 11:07:40;;;;;;;4.90;4.40;;;17.80;99.90;;;;;;5099723;28;20088;-59
2023/07/27 11:10:12;;;;;;;4.90;4.50;;;17.80;99.90;;;;;;5098291;28;20099;-59
2023/07/27 11:12:48;;;;;;;5.25;4.80;;;17.90;99.90;;;;;;5098818;28;20048;-60
2023/07/27 11:15:24;;;;;;;5.38;4.88;;;17.90;99.90;;;;;;5097965;28;20067;-60
2023/07/27 11:17:53;;;;;;;4.50;3.90;;;18.00;99.90;;;;;;5100427;28;20054;-59
2023/07/27 11:20:20;;;;;;;5.38;4.63;;;18.10;99.90;;;;;;5099365;28;20071;-59
2023/07/27 11:22:47;;;;;;;4.43;4.03;;;18.20;99.90;;;;;;5098532;28;20047;-60
2023/07/27 11:25:13;;;;;;;4.10;3.70;;;18.30;99.90;;;;;;5100079;28;20403;-60
2023/07/27 11:27:39;;;;;;;5.25;4.07;;;18.40;99.90;;;;;;5098040;28;20044;-59
2023/07/27 11:30:09;;;;;;;5.07;3.85;;;18.40;99.90;;;;;;5100020;28;20131;-60
2023/07/27 11:32:35;;;;;;;4.50;4.10;;;18.40;99.90;;;;;;5096703;28;20557;-59
2023/07/27 11:35:01;;;;;;;5.95;4.40;;;18.40;99.90;;;;;;5100065;28;20514;-60
2023/07/27 11:37:30;;;;;;;3.95;3.58;;;18.40;99.90;;;;;;5099007;28;20064;-60
2023/07/27 11:39:56;;;;;;;5.30;3.60;;;18.40;99.90;;;;;;5098585;28;20032;-59
2023/07/27 11:42:38;;;;;;;4.15;3.70;;;18.40;99.90;;;;;;5099390;28;20044;-60
2023/07/27 11:45:04;;;;;;;4.25;3.85;;;18.40;99.90;;;;;;5097741;28;20070;-60
2023/07/27 11:47:40;;;;;;;4.20;3.80;;;18.50;99.90;;;;;;5100089;28;20095;-60
2023/07/27 11:50:11;;;;;;;4.05;3.60;;;18.60;99.90;;;;;;5098804;28;20044;-59
2023/07/27 11:52:40;;;;;;;5.10;3.47;;;18.60;99.90;;;;;;5098981;28;20050;-60
2023/07/27 11:55:06;;;;;;;4.63;3.53;;;18.60;99.90;;;;;;5099672;28;20037;-60
2023/07/27 11:57:32;;;;;;;3.60;3.30;;;18.60;99.90;;;;;;5101864;28;20067;-60
2023/07/27 12:00:14;;;;;;;4.95;3.38;;;18.70;99.90;;;;;;5104125;28;20063;-60
2023/07/27 12:02:44;;;;;;;3.53;3.10;;;18.60;99.90;;;;;;5101911;28;20032;-59
2023/07/27 12:05:14;;;;;;;3.17;2.88;;;18.60;99.90;;;;;;5103369;28;20040;-60
2023/07/27 12:07:40;;;;;;;3.55;2.65;;;18.70;99.90;;;;;;5103448;28;20047;-60
2023/07/27 12:10:11;;;;;;;5.00;3.13;;;18.70;99.90;;;;;;5101946;28;20427;-60
2023/07/27 12:13:07;;;;;;;3.20;2.90;;;18.80;99.90;;;;;;5103593;28;20058;-60
2023/07/27 12:15:34;;;;;;;6.47;3.47;;;18.80;99.90;;;;;;5101870;28;20148;-60
2023/07/27 12:18:06;;;;;;;8.10;3.50;;;18.80;99.90;;;;;;5103102;28;20629;-60
2023/07/27 12:20:34;;;;;;;3.90;3.42;;;18.80;99.90;;;;;;5103188;28;20050;-60
2023/07/27 12:23:00;;;;;;;3.92;3.40;;;18.80;99.90;;;;;;5101557;28;20491;-60
2023/07/27 12:25:26;;;;;;;5.55;3.20;;;18.80;99.90;;;;;;5103275;28;20048;-60
2023/07/27 12:27:52;;;;;;;3.17;2.50;;;18.80;99.90;;;;;;5101317;28;20044;-59
2023/07/27 12:30:19;;;;;;;2.80;2.30;;;18.80;99.90;;;;;;5103636;28;20039;-59
2023/07/27 12:32:46;;;;;;;3.28;2.30;;;18.80;99.90;;;;;;5101668;28;20044;-57
2023/07/27 12:35:12;;;;;;;3.55;2.40;;;18.70;99.90;;;;;;5102757;28;20054;-59
2023/07/27 12:37:37;;;;;;;4.50;2.40;;;18.70;99.90;;;;;;5102780;28;20076;-59
2023/07/27 12:40:03;;;;;;;3.58;2.60;;;18.70;99.90;;;;;;5101247;28;20134;-59
2023/07/27 12:42:29;;;;;;;5.30;2.50;;;18.70;99.90;;;;;;5102660;28;20046;-59
2023/07/27 12:44:56;;;;;;;6.10;2.65;;;18.70;99.90;;;;;;5100840;28;20067;-60